Latest Weather Observations for Rottnest Island

IDW60901

Issued at 4:01 pm WST Monday 25 September 2017 (issued every 10 minutes, with the page automatically refreshed every 10 minutes)

About weather observations | Map of Perth area stations | Latest observations for Perth area | Other Formats
Station Details ID: 009193 Name: ROTTNEST ISLAND Lat: -32.01 Lon: 115.50 Height: 43.1 m
Data from the previous 72 hours. | See also: Recent months at Rottnest Island
Date/Time
WST
Temp
°C
App
Temp
°C
Dew
Point
°C
Rel
Hum
%
Delta-T
°C
Wind Press
QNH
hPa
Press
MSL
hPa
Rain since
9am
mm
Dir  Spd
km/h
Gust
km/h
Spd
kts
Gust
kts
25/04:00pm 15.1 8.7 8.6 65 3.3 S 32 41 17 22 1004.2 1004.2 3.8
25/03:30pm 15.7 9.9 9.4 66 3.3 S 30 39 16 21 1004.0 1004.0 3.8
25/03:00pm 14.6 8.2 8.5 67 3.1 S 32 43 17 23 1003.8 1003.8 3.8
25/02:30pm 14.3 8.0 9.1 71 2.7 S 32 41 17 22 1003.5 1003.5 3.8
25/02:00pm 14.3 8.4 8.9 70 2.8 S 30 39 16 21 1003.5 1003.5 3.8
25/01:30pm 14.5 9.4 9.3 71 2.7 S 26 33 14 18 1003.3 1003.3 3.8
25/01:00pm 13.9 10.3 9.9 77 2.1 SSE 19 22 10 12 1003.5 1003.5 3.8
25/12:30pm 12.8 9.7 10.2 84 1.3 SE 17 24 9 13 1003.7 1003.7 3.8
25/12:00pm 12.1 9.3 10.0 87 1.1 ESE 15 26 8 14 1003.7 1003.7 3.8
25/11:30am 14.4 11.4 10.6 78 2.0 NNE 17 24 9 13 1003.4 1003.4 0.4
25/11:00am 13.6 10.2 10.4 81 1.7 NE 19 24 10 13 1003.4 1003.4 0.4
25/10:30am 12.3 9.2 10.2 87 1.1 NE 17 24 9 13 1003.6 1003.6 0.4
25/10:00am 11.7 8.5 9.9 89 0.9 NE 17 24 9 13 1003.5 1003.5 0.4
25/09:30am 11.4 7.7 9.5 88 1.0 NE 19 24 10 13 1003.3 1003.3 0.0
25/09:00am 11.3 7.6 9.6 89 0.9 ENE 19 26 10 14 1003.5 1003.5 15.8
25/08:30am 10.8 6.5 9.2 90 0.8 ENE 22 30 12 16 1002.9 1002.9 15.8
25/08:00am 10.8 6.2 9.6 92 0.6 E 24 35 13 19 1002.7 1002.7 15.8
25/07:30am 10.7 5.2 9.3 91 0.7 E 28 39 15 21 1002.6 1002.6 15.4
25/07:00am 11.3 7.4 9.6 89 0.9 ESE 20 35 11 19 1002.4 1002.4 14.8
25/06:30am 12.6 8.6 9.2 80 1.7 WSW 20 32 11 17 1001.8 1001.8 14.8
25/06:00am 12.8 9.4 7.7 71 2.5 NW 15 20 8 11 1001.7 1001.7 14.8
25/05:30am 13.0 8.8 8.1 72 2.4 NW 20 24 11 13 1001.6 1001.6 14.8
25/05:00am 13.2 8.9 7.9 70 2.6 NW 20 28 11 15 1001.5 1001.5 14.8
25/04:30am 13.3 8.8 7.1 66 3.0 NW 20 30 11 16 1001.3 1001.3 14.8
25/04:00am 13.1 8.0 7.8 70 2.6 NW 24 32 13 17 1001.3 1001.3 14.8
25/03:30am 12.8 7.6 7.3 69 2.7 WNW 24 33 13 18 1001.5 1001.5 14.8
25/03:00am 11.8 7.7 8.5 80 1.6 WNW 20 33 11 18 1001.5 1001.5 14.8
25/02:30am 12.8 7.7 7.5 70 2.6 NW 24 33 13 18 1001.7 1001.7 14.8
25/02:00am 13.0 7.1 7.5 69 2.7 NW 28 37 15 20 1001.8 1001.8 14.8
25/01:30am 12.7 6.8 7.6 71 2.5 NW 28 35 15 19 1002.1 1002.1 14.8
25/01:00am 12.8 6.9 7.3 69 2.7 NW 28 33 15 18 1002.3 1002.3 14.8
25/12:30am 12.4 6.7 6.5 67 2.8 NW 26 32 14 17 1002.5 1002.5 14.8
25/12:00am 12.3 7.8 6.8 69 2.6 NNW 20 35 11 19 1002.6 1002.6 14.6
 
Date/Time
WST
Temp
°C
App
Temp
°C
Dew
Point
°C
Rel
Hum
%
Delta-T
°C
Wind Press
QNH
hPa
Press
MSL
hPa
Rain since
9am
mm
Dir  Spd
km/h
Gust
km/h
Spd
kts
Gust
kts
24/11:31pm 12.9 7.1 7.8 71 2.5 NNW 28 50 15 27 1002.5 1002.5 14.2
24/11:30pm 12.9 7.4 7.6 70 2.6 NNW 26 48 14 26 1002.6 1002.6 14.2
24/11:00pm 13.1 7.5 7.3 68 2.8 NNW 26 33 14 18 1003.2 1003.2 14.2
24/10:30pm 12.7 9.0 7.8 72 2.4 NW 17 30 9 16 1003.5 1003.5 14.2
24/10:00pm 12.3 8.3 6.6 68 2.7 NW 17 24 9 13 1003.9 1003.9 14.2
24/09:30pm 12.3 7.9 6.4 67 2.8 NW 19 22 10 12 1004.2 1004.2 14.2
24/09:00pm 11.9 7.2 6.0 67 2.8 WNW 20 26 11 14 1004.2 1004.2 14.2
24/08:30pm 11.6 8.3 7.9 78 1.8 NW 15 22 8 12 1004.4 1004.4 14.0
24/08:00pm 11.3 7.2 8.5 83 1.4 NW 20 30 11 16 1004.5 1004.5 14.0
24/07:30pm 12.4 8.2 8.1 75 2.1 W 20 30 11 16 1004.4 1004.4 13.8
24/07:00pm 11.6 8.4 8.5 81 1.5 W 15 22 8 12 1004.5 1004.5 13.8
24/06:30pm 11.7 7.6 8.7 82 1.5 W 20 30 11 16 1004.5 1004.5 13.8
24/06:05pm 11.1 3.8 7.4 78 1.8 WNW 35 61 19 33 1004.3 1004.3 13.6
24/06:00pm 12.9 7.7 7.1 68 2.8 W 24 59 13 32 1004.2 1004.2 12.8
24/05:30pm 14.0 8.3 6.6 61 3.6 WNW 26 35 14 19 1004.2 1004.2 12.8
24/05:00pm 14.7 9.1 7.3 61 3.7 WNW 26 33 14 18 1003.9 1003.9 12.8
24/04:30pm 14.9 9.5 7.9 63 3.5 WNW 26 35 14 19 1003.5 1003.5 12.8
24/04:00pm 14.0 7.4 7.8 66 3.1 WNW 32 43 17 23 1004.0 1004.0 12.8
24/03:30pm 14.5 9.7 8.7 68 2.9 WNW 24 32 13 17 1004.0 1004.0 12.8
24/03:00pm 13.7 8.0 11.0 84 1.4 WNW 32 46 17 25 1003.9 1003.9 12.8
24/02:51pm 12.6 8.1 10.1 85 1.3 W 24 46 13 25 1003.9 1003.9 12.8
24/02:39pm 11.8 6.8 9.5 86 1.2 NW 26 46 14 25 1004.3 1004.3 12.0
24/02:32pm 12.6 7.7 9.8 83 1.4 N 26 46 14 25 1003.8 1003.8 10.6
24/02:30pm 13.1 9.3 11.0 87 1.1 N 22 46 12 25 1003.8 1003.8 10.4
24/02:00pm 13.3 11.7 11.7 90 0.9 N 11 15 6 8 1004.4 1004.4 10.0
24/01:30pm 12.5 10.0 10.9 90 0.8 N 15 20 8 11 1004.7 1004.7 7.2
24/01:00pm 11.8 8.4 10.4 91 0.7 N 19 28 10 15 1005.6 1005.6 6.0
24/12:30pm 12.6 7.9 10.7 88 1.0 NNW 26 35 14 19 1005.7 1005.7 2.0
24/12:00pm 13.9 10.1 8.9 72 2.5 N 19 24 10 13 1005.8 1005.8 0.2
24/11:30am 14.7 11.1 8.2 65 3.3 N 17 22 9 12 1006.0 1006.0 0.0
24/11:00am 15.4 11.6 7.7 60 3.9 N 17 24 9 13 1006.2 1006.2 0.0
24/10:30am 15.0 11.6 7.8 62 3.6 N 15 19 8 10 1006.7 1006.7 0.0
24/10:00am 14.9 12.0 8.2 64 3.4 N 13 17 7 9 1007.0 1007.0 0.0
24/09:30am 15.0 11.9 8.7 66 3.2 N 15 19 8 10 1007.2 1007.2 0.0
24/09:00am 15.0 12.3 9.1 68 3.0 NNE 13 17 7 9 1007.5 1007.5 28.0
24/08:30am 14.5 12.2 8.9 69 2.8 NNE 11 15 6 8 1007.6 1007.6 28.0
24/08:00am 14.3 13.0 9.9 75 2.3 NNE 7 13 4 7 1007.5 1007.5 28.0
24/07:30am 13.2 12.0 10.4 83 1.5 NNE 7 9 4 5 1007.5 1007.5 28.0
24/07:00am 13.0 12.0 10.4 84 1.4 NNE 6 7 3 4 1007.4 1007.4 28.0
24/06:30am 11.8 10.3 9.2 84 1.3 NNE 7 9 4 5 1007.4 1007.4 28.0
24/06:00am 11.6 10.1 9.3 86 1.2 NNE 7 9 4 5 1007.5 1007.5 28.0
24/05:30am 11.5 9.6 9.2 86 1.2 NNE 9 9 5 5 1007.6 1007.6 28.0
24/05:00am 10.9 9.1 9.3 90 0.8 NNE 9 11 5 6 1007.7 1007.7 28.0
24/04:30am 10.7 8.9 9.3 91 0.7 NNE 9 11 5 6 1007.8 1007.8 27.8
24/04:00am 9.9 7.3 7.8 87 1.0 NNE 11 17 6 9 1008.1 1008.0 26.4
24/03:46am 9.7 5.4 6.8 82 1.4 NE 19 48 10 26 1008.1 1008.0 22.6
24/03:30am 11.4 7.3 10.0 91 0.7 WSW 22 30 12 16 1008.1 1008.0 1.6
24/03:00am 11.8 7.9 9.5 86 1.2 WSW 20 26 11 14 1008.2 1008.1 0.6
24/02:30am 12.4 9.1 9.4 82 1.5 WSW 17 24 9 13 1008.6 1008.5 0.4
24/02:00am 12.0 9.4 9.2 83 1.4 WSW 13 20 7 11 1009.0 1008.9 0.4
24/01:30am 12.1 9.2 8.0 76 2.0 WSW 13 15 7 8 1009.5 1009.4 0.4
24/01:00am 12.7 10.0 7.2 69 2.7 WSW 11 13 6 7 1009.8 1009.7 0.4
24/12:30am 12.6 10.2 7.1 69 2.7 WSW 9 9 5 5 1010.1 1010.0 0.4
24/12:00am 12.2 9.4 7.1 71 2.5 WSW 11 11 6 6 1010.3 1010.2 0.4
 
Date/Time
WST
Temp
°C
App
Temp
°C
Dew
Point
°C
Rel
Hum
%
Delta-T
°C
Wind Press
QNH
hPa
Press
MSL
hPa
Rain since
9am
mm
Dir  Spd
km/h
Gust
km/h
Spd
kts
Gust
kts
23/11:30pm 12.7 10.6 6.7 67 2.9 WSW 7 9 4 5 1010.6 1010.5 0.4
23/11:00pm 12.4 10.3 6.7 68 2.7 WSW 7 11 4 6 1011.2 1011.1 0.4
23/10:30pm 12.4 9.8 7.7 73 2.3 SW 11 13 6 7 1011.5 1011.4 0.4
23/10:00pm 12.5 9.6 8.0 74 2.2 SW 13 17 7 9 1011.8 1011.7 0.4
23/09:30pm 13.3 10.8 6.6 64 3.2 WSW 9 11 5 6 1012.0 1011.9 0.4
23/09:00pm 13.5 11.2 5.9 60 3.6 WSW 7 9 4 5 1012.4 1012.3 0.4
23/08:30pm 13.4 10.7 5.8 60 3.6 WSW 9 11 5 6 1012.6 1012.5 0.4
23/08:00pm 13.6 10.2 6.0 60 3.6 WSW 13 15 7 8 1012.7 1012.6 0.4
23/07:30pm 13.4 10.4 5.8 60 3.6 WSW 11 13 6 7 1012.7 1012.6 0.4
23/07:00pm 13.6 10.9 5.7 59 3.7 WSW 9 13 5 7 1012.7 1012.6 0.4
23/06:30pm 13.8 10.4 5.7 58 3.8 WSW 13 17 7 9 1012.8 1012.7 0.4
23/06:00pm 14.2 10.8 5.8 57 4.0 WSW 13 19 7 10 1012.9 1012.8 0.4
23/05:30pm 14.4 9.7 5.2 54 4.3 WSW 19 24 10 13 1012.9 1012.8 0.4
23/05:00pm 14.9 10.6 5.4 53 4.5 WSW 17 20 9 11 1012.9 1012.8 0.4
23/04:30pm 15.0 10.4 5.8 54 4.4 WSW 19 24 10 13 1012.9 1012.8 0.4
23/04:00pm 15.2 10.5 6.0 54 4.4 WSW 20 26 11 14 1012.8 1012.7 0.4
23/03:30pm 15.8 11.1 6.0 52 4.7 SW 20 28 11 15 1012.5 1012.4 0.4
23/03:00pm 15.4 10.4 6.4 55 4.4 SW 22 30 12 16 1012.5 1012.4 0.4
23/02:30pm 15.2 10.7 7.0 58 4.0 SW 20 28 11 15 1012.5 1012.4 0.4
23/02:00pm 16.7 11.6 7.6 55 4.6 SW 24 32 13 17 1012.7 1012.6 0.4
23/01:30pm 15.9 9.5 6.9 55 4.4 SW 30 37 16 20 1012.7 1012.6 0.4
23/01:00pm 16.0 11.0 8.0 59 4.0 SW 24 35 13 19 1012.8 1012.7 0.4
23/12:30pm 14.6 9.7 10.0 74 2.4 SW 26 33 14 18 1013.2 1013.1 0.4
23/12:00pm 14.6 8.9 8.5 67 3.1 SW 28 39 15 21 1013.1 1013.0 0.2
23/11:30am 14.2 10.2 8.2 67 3.0 SW 19 26 10 14 1013.6 1013.5 0.2
23/11:00am 15.7 10.0 8.4 62 3.7 SW 28 33 15 18 1013.5 1013.4 0.2
23/10:30am 14.6 8.4 7.9 64 3.3 SW 30 39 16 21 1013.4 1013.3 0.2
23/10:06am 13.4 7.6 9.6 78 1.9 WSW 30 48 16 26 1013.3 1013.2 0.2
23/10:00am 13.2 7.4 9.5 78 1.9 WSW 30 41 16 22 1013.6 1013.5 0.2
23/09:30am 15.2 8.5 8.2 63 3.5 SW 33 46 18 25 1013.2 1013.1 0.0
23/09:00am 14.3 7.9 7.1 62 3.5 WSW 30 41 16 22 1013.1 1013.0 2.8
23/08:30am 13.5 6.9 7.9 69 2.8 SW 32 43 17 23 1012.9 1012.8 2.8
23/08:00am 12.9 5.2 8.6 75 2.2 SW 39 50 21 27 1012.7 1012.6 2.8
23/07:47am 13.1 6.5 8.6 74 2.3 SW 33 52 18 28 1012.4 1012.3 2.8
23/07:30am 13.1 6.3 9.4 78 1.9 WSW 35 44 19 24 1012.2 1012.1 2.8
23/07:00am 12.6 5.8 9.4 81 1.6 SW 35 50 19 27 1011.9 1011.8 2.8
23/06:31am 12.8 5.6 9.1 78 1.9 SW 37 56 20 30 1011.5 1011.4 2.2
23/06:30am 13.2 6.4 9.1 76 2.1 SW 35 50 19 27 1011.5 1011.4 2.2
23/06:00am 12.6 5.4 9.1 79 1.8 SW 37 48 20 26 1011.2 1011.1 2.2
23/05:52am 12.2 3.8 8.9 80 1.7 SW 43 59 23 32 1011.1 1011.0 2.2
23/05:44am 13.1 6.6 8.8 75 2.2 WSW 33 54 18 29 1011.0 1010.9 2.2
23/05:30am 12.2 6.5 8.3 77 1.9 WSW 28 39 15 21 1011.2 1011.1 2.2
23/05:20am 12.1 5.0 9.5 84 1.3 W 37 56 20 30 1011.2 1011.1 2.2
23/05:13am 12.4 4.7 8.5 77 1.9 WSW 39 56 21 30 1011.0 1010.9 2.2
23/05:00am 12.3 4.3 7.6 73 2.3 WSW 39 56 21 30 1011.2 1011.1 2.2
23/04:45am 12.3 3.8 8.4 77 1.9 WSW 43 65 23 35 1010.9 1010.8 2.2
23/04:34am 11.3 5.6 8.2 81 1.5 WSW 28 46 15 25 1010.9 1010.8 2.2
23/04:30am 10.9 4.1 7.8 81 1.5 WSW 33 48 18 26 1010.9 1010.8 2.2
23/04:17am 12.5 6.4 8.2 75 2.1 WSW 30 48 16 26 1011.0 1010.9 1.6
23/04:00am 13.8 7.6 6.2 60 3.6 WSW 28 39 15 21 1010.7 1010.6 1.4
23/03:30am 13.7 6.3 6.8 63 3.3 SW 35 43 19 23 1010.9 1010.8 1.4
23/03:00am 14.1 6.7 6.7 61 3.6 SW 35 46 19 25 1010.6 1010.5 1.4
23/02:30am 14.1 6.3 6.5 60 3.7 SW 37 46 20 25 1010.8 1010.7 1.4
23/02:01am 14.2 5.9 6.1 58 3.9 SW 39 57 21 31 1010.9 1010.8 1.4
23/02:00am 14.3 5.6 5.9 57 4.0 SW 41 57 22 31 1010.9 1010.8 1.4
23/01:58am 14.5 6.2 6.3 58 4.0 SW 39 57 21 31 1010.7 1010.6 1.4
23/01:30am 14.1 6.4 5.2 55 4.2 SW 35 44 19 24 1011.0 1010.9 1.4
23/01:00am 14.3 5.6 6.2 58 3.9 SW 41 52 22 28 1011.0 1010.9 1.4
23/12:30am 14.6 6.5 7.2 61 3.6 SW 39 50 21 27 1011.0 1010.9 1.4
23/12:00am 14.5 7.3 5.8 56 4.2 WSW 33 46 18 25 1011.0 1010.9 1.4
 
Date/Time
WST
Temp
°C
App
Temp
°C
Dew
Point
°C
Rel
Hum
%
Delta-T
°C
Wind Press
QNH
hPa
Press
MSL
hPa
Rain since
9am
mm
Dir  Spd
km/h
Gust
km/h
Spd
kts
Gust
kts
22/11:30pm 14.6 6.5 6.9 60 3.8 WSW 39 48 21 26 1011.1 1011.0 1.4
22/11:00pm 14.9 7.1 8.2 64 3.4 SW 39 52 21 28 1010.7 1010.6 1.4
22/10:30pm 14.5 6.5 7.3 62 3.5 WSW 39 54 21 29 1010.7 1010.6 1.4
22/10:12pm 14.7 8.0 8.2 65 3.3 WSW 33 54 18 29 1010.7 1010.6 1.4
22/10:00pm 14.8 7.5 7.4 61 3.7 WSW 35 50 19 27 1010.7 1010.6 1.4
22/09:51pm 14.6 7.7 8.8 68 2.9 WSW 35 54 19 29 1010.7 1010.6 1.4
22/09:30pm 14.7 7.1 7.5 62 3.6 WSW 37 52 20 28 1010.6 1010.5 1.4
22/09:00pm 14.9 8.3 8.6 66 3.2 WSW 33 43 18 23 1010.4 1010.3 1.4
22/08:30pm 15.1 8.6 8.3 64 3.4 WSW 32 43 17 23 1010.0 1009.9 1.4
22/08:00pm 15.3 8.3 8.3 63 3.5 WSW 35 46 19 25 1009.7 1009.6 1.4
22/07:30pm 15.1 8.5 8.6 65 3.3 WSW 33 46 18 25 1009.3 1009.2 1.4
22/07:00pm 15.5 8.8 9.8 69 3.0 WSW 35 48 19 26 1008.6 1008.5 1.4
22/06:30pm 15.7 7.7 9.1 65 3.4 WSW 41 59 22 32 1008.1 1008.0 1.4
22/06:22pm 15.7 7.9 8.4 62 3.7 WSW 39 59 21 32 1008.0 1007.9 1.4
22/06:00pm 15.7 7.8 8.0 60 3.9 WSW 39 56 21 30 1007.7 1007.7 1.4
22/05:47pm 15.9 7.2 7.9 59 4.0 WSW 43 61 23 33 1007.3 1007.3 1.4
22/05:30pm 16.0 8.0 9.0 63 3.6 W 41 57 22 31 1007.3 1007.3 1.4
22/05:17pm 16.0 7.1 7.7 58 4.2 WSW 44 63 24 34 1007.0 1007.0 1.4
22/05:00pm 16.4 7.2 8.1 58 4.2 W 46 61 25 33 1006.7 1006.7 1.4
22/04:35pm 16.9 7.6 9.1 60 4.0 W 48 67 26 36 1006.3 1006.3 1.4
22/04:30pm 16.7 6.8 8.1 57 4.4 W 50 67 27 36 1006.1 1006.1 1.4

Latest Capital City Observations: Canberra | Sydney | Melbourne | Brisbane | Adelaide | Perth | Hobart | Darwin

Other Formats:

Comma delimited format used in spreadsheet applications
http://www.bom.gov.au/fwo/IDW60901/IDW60901.94602.axf

JavaScript Object Notation format (JSON) in row-major order
http://www.bom.gov.au/fwo/IDW60901/IDW60901.94602.json